createdAt,value
2018-09-15T00:00:21.285Z,14.17
2018-09-15T00:02:53.218Z,14.37
2018-09-15T00:05:24.443Z,15.07
2018-09-15T00:07:55.683Z,14.40
2018-09-15T00:10:26.944Z,14.30
2018-09-15T00:12:58.226Z,16.03
2018-09-15T00:15:29.458Z,14.40
2018-09-15T00:18:02.294Z,15.57
2018-09-15T00:20:33.532Z,15.70
2018-09-15T00:23:04.825Z,14.37
2018-09-15T00:25:36.024Z,15.40
2018-09-15T00:28:07.686Z,15.90
2018-09-15T00:30:39.168Z,15.30
2018-09-15T00:33:10.538Z,16.10
2018-09-15T00:35:41.751Z,15.80
2018-09-15T00:38:13.007Z,16.73
2018-09-15T00:40:44.303Z,14.77
2018-09-15T00:43:15.515Z,14.60
2018-09-15T00:45:46.741Z,14.63
2018-09-15T00:48:17.993Z,14.70
2018-09-15T00:50:49.221Z,14.43
2018-09-15T00:53:20.431Z,14.53
2018-09-15T00:55:51.668Z,15.07
2018-09-15T00:58:22.885Z,15.00
2018-09-15T01:00:54.119Z,15.17
2018-09-15T01:03:25.329Z,15.33
2018-09-15T01:05:56.679Z,14.87
2018-09-15T01:08:27.908Z,14.77
2018-09-15T01:10:59.145Z,15.17
2018-09-15T01:13:30.358Z,14.40
2018-09-15T01:16:01.633Z,14.60
2018-09-15T01:18:32.869Z,14.77
2018-09-15T01:21:04.096Z,14.53
2018-09-15T01:23:35.306Z,14.40
2018-09-15T01:26:06.617Z,14.40
2018-09-15T01:28:37.758Z,14.30
2018-09-15T01:31:08.982Z,14.30
2018-09-15T01:33:40.208Z,15.00
2018-09-15T01:36:11.440Z,13.83
2018-09-15T01:38:42.702Z,14.13
2018-09-15T01:41:13.909Z,14.07
2018-09-15T01:43:45.149Z,14.93
2018-09-15T01:46:16.359Z,15.87
2018-09-15T01:48:47.641Z,16.00
2018-09-15T01:51:18.855Z,14.10
2018-09-15T01:53:50.075Z,14.17
2018-09-15T01:56:21.294Z,14.07
2018-09-15T01:58:52.534Z,14.13
2018-09-15T02:01:23.767Z,14.50
2018-09-15T02:03:55.018Z,14.57
2018-09-15T02:06:26.262Z,14.70
2018-09-15T02:08:57.485Z,15.10
2018-09-15T02:11:28.715Z,14.03
2018-09-15T02:13:59.997Z,16.10
2018-09-15T02:16:31.277Z,16.17
2018-09-15T02:19:02.525Z,15.63
2018-09-15T02:21:33.753Z,15.90
2018-09-15T02:24:04.988Z,14.60
2018-09-15T02:26:36.215Z,14.37
2018-09-15T02:29:07.511Z,14.60
2018-09-15T02:31:38.699Z,15.60
2018-09-15T02:34:09.889Z,14.00
2018-09-15T02:36:41.175Z,14.80
2018-09-15T02:39:12.801Z,15.37
2018-09-15T02:41:44.010Z,14.70
2018-09-15T02:44:15.262Z,15.97
2018-09-15T02:46:46.472Z,15.03
2018-09-15T02:49:17.738Z,14.87
2018-09-15T02:51:48.953Z,15.47
2018-09-15T02:54:20.165Z,15.90
2018-09-15T02:56:51.381Z,14.17
2018-09-15T02:59:22.591Z,13.80
2018-09-15T03:01:53.796Z,15.77
2018-09-15T03:04:25.009Z,14.73
2018-09-15T03:06:56.221Z,15.47
2018-09-15T03:09:27.429Z,14.23
2018-09-15T03:11:58.651Z,15.77
2018-09-15T03:14:29.921Z,15.10
2018-09-15T03:17:01.116Z,15.67
2018-09-15T03:19:32.395Z,14.73
2018-09-15T03:22:03.606Z,16.00
2018-09-15T03:24:34.893Z,14.93
2018-09-15T03:27:06.113Z,15.57
2018-09-15T03:29:37.351Z,14.23
2018-09-15T03:32:08.553Z,15.27
2018-09-15T03:34:39.757Z,14.73
2018-09-15T03:37:10.983Z,14.77
2018-09-15T03:39:42.200Z,16.10
2018-09-15T03:42:13.405Z,15.13
2018-09-15T03:44:44.610Z,15.70
2018-09-15T03:47:15.822Z,14.33
2018-09-15T03:49:47.032Z,14.77
2018-09-15T03:52:18.239Z,14.47
2018-09-15T03:54:49.442Z,14.27
2018-09-15T03:57:20.670Z,14.10
2018-09-15T03:59:51.903Z,13.90
2018-09-15T04:02:23.101Z,14.03
2018-09-15T04:04:54.409Z,13.37
2018-09-15T04:07:25.637Z,15.07
2018-09-15T04:09:56.847Z,14.80
2018-09-15T04:12:28.054Z,14.83
2018-09-15T04:14:59.290Z,14.97
2018-09-15T04:17:30.491Z,14.80
2018-09-15T04:20:01.706Z,15.30
2018-09-15T04:22:33.009Z,14.73
2018-09-15T04:25:04.218Z,15.70
2018-09-15T04:27:35.437Z,15.23
2018-09-15T04:30:06.657Z,14.40
2018-09-15T04:32:37.877Z,15.97
2018-09-15T04:35:09.093Z,15.63
2018-09-15T04:37:40.314Z,13.93
2018-09-15T04:40:11.537Z,14.50
2018-09-15T04:42:42.734Z,14.10
2018-09-15T04:45:13.953Z,15.07
2018-09-15T04:47:45.178Z,16.10
2018-09-15T04:50:16.511Z,16.27
2018-09-15T04:52:47.774Z,16.60
2018-09-15T04:55:18.962Z,16.27
2018-09-15T04:57:50.666Z,15.70
2018-09-15T05:00:21.887Z,15.83
2018-09-15T05:02:53.116Z,15.37
2018-09-15T05:05:24.317Z,15.07
2018-09-15T05:07:55.549Z,14.70
2018-09-15T05:10:26.753Z,16.53
2018-09-15T05:12:58.064Z,15.83
2018-09-15T05:15:29.187Z,14.93
2018-09-15T05:18:00.417Z,14.33
2018-09-15T05:20:31.646Z,15.30
2018-09-15T05:23:02.859Z,15.07
2018-09-15T05:25:34.069Z,14.43
2018-09-15T05:28:05.311Z,14.70
2018-09-15T05:30:36.587Z,15.90
2018-09-15T05:33:07.847Z,14.87
2018-09-15T05:35:39.071Z,14.90
2018-09-15T05:38:10.289Z,13.80
2018-09-15T05:40:41.516Z,14.20
2018-09-15T05:43:12.726Z,15.97
2018-09-15T05:45:43.953Z,14.33
2018-09-15T05:48:15.190Z,13.77
2018-09-15T05:50:46.420Z,14.47
2018-09-15T05:53:17.639Z,13.87
2018-09-15T05:55:48.889Z,13.60
2018-09-15T05:58:20.249Z,14.10
2018-09-15T06:00:51.933Z,13.70
2018-09-15T06:03:23.308Z,13.67
2018-09-15T06:05:54.543Z,13.80
2018-09-15T06:08:25.865Z,13.83
2018-09-15T06:10:57.118Z,14.33
2018-09-15T06:13:28.442Z,13.30
2018-09-15T06:15:59.740Z,15.07
2018-09-15T06:18:30.957Z,13.37
2018-09-15T06:21:02.184Z,13.93
2018-09-15T06:23:33.437Z,13.03
2018-09-15T06:26:04.650Z,13.73
2018-09-15T06:28:35.925Z,12.77
2018-09-15T06:31:07.134Z,13.17
2018-09-15T06:33:38.354Z,13.90
2018-09-15T06:36:09.656Z,13.13
2018-09-15T06:38:40.873Z,12.27
2018-09-15T06:41:12.073Z,13.17
2018-09-15T06:43:43.289Z,12.47
2018-09-15T06:46:14.494Z,12.97
2018-09-15T06:48:45.705Z,12.87
2018-09-15T06:51:16.930Z,12.77
2018-09-15T06:53:48.177Z,13.20
2018-09-15T06:56:19.363Z,12.70
2018-09-15T06:58:50.575Z,13.10
2018-09-15T07:01:21.789Z,13.83
2018-09-15T07:03:52.987Z,13.30
2018-09-15T07:06:24.290Z,14.03
2018-09-15T07:08:55.508Z,13.37
2018-09-15T07:11:26.723Z,13.93
2018-09-15T07:13:58.015Z,13.77
2018-09-15T07:16:29.389Z,13.10
2018-09-15T07:19:00.730Z,12.83
2018-09-15T07:21:32.015Z,12.27
2018-09-15T07:24:03.234Z,12.77
2018-09-15T07:26:34.462Z,12.30
2018-09-15T07:29:05.657Z,13.07
2018-09-15T07:31:36.976Z,12.00
2018-09-15T07:34:08.134Z,13.37
2018-09-15T07:36:39.372Z,13.43
2018-09-15T07:39:11.109Z,13.50
2018-09-15T07:41:42.329Z,14.80
2018-09-15T07:44:13.561Z,13.77
2018-09-15T07:46:44.789Z,13.43
2018-09-15T07:49:16.042Z,13.23
2018-09-15T07:51:47.255Z,14.70
2018-09-15T07:54:18.483Z,13.67
2018-09-15T07:56:49.718Z,13.90
2018-09-15T07:59:20.984Z,12.77
2018-09-15T08:01:52.239Z,14.90
2018-09-15T08:04:23.426Z,14.73
2018-09-15T08:06:54.645Z,14.20
2018-09-15T08:09:56.707Z,14.00
2018-09-15T08:12:27.935Z,14.10
2018-09-15T08:14:59.195Z,12.90
2018-09-15T08:17:30.438Z,13.20
2018-09-15T08:20:01.651Z,13.87
2018-09-15T08:22:32.921Z,12.27
2018-09-15T08:25:04.142Z,12.00
2018-09-15T08:27:35.387Z,13.53
2018-09-15T08:30:06.614Z,13.43
2018-09-15T08:32:37.946Z,12.33
2018-09-15T08:35:09.153Z,11.87
2018-09-15T08:37:40.455Z,10.97
2018-09-15T08:40:11.645Z,12.40
2018-09-15T08:42:42.848Z,12.10
2018-09-15T08:45:14.179Z,11.63
2018-09-15T08:47:45.383Z,12.47
2018-09-15T08:50:16.617Z,12.50
2018-09-15T08:52:47.874Z,10.53
2018-09-15T08:55:19.086Z,10.40
2018-09-15T08:57:50.299Z,10.40
2018-09-15T09:00:21.676Z,10.30
2018-09-15T09:02:52.896Z,8.58
2018-09-15T09:05:24.151Z,9.15
2018-09-15T09:07:55.353Z,9.75
2018-09-15T09:10:26.672Z,9.85
2018-09-15T09:12:57.854Z,9.70
2018-09-15T09:15:29.129Z,8.80
2018-09-15T09:18:00.353Z,7.40
2018-09-15T09:20:31.557Z,7.72
2018-09-15T09:23:02.803Z,7.70
2018-09-15T09:25:34.027Z,7.28
2018-09-15T09:28:05.239Z,7.15
2018-09-15T09:30:36.561Z,7.75
2018-09-15T09:33:07.844Z,8.48
2018-09-15T09:35:39.019Z,6.78
2018-09-15T09:38:10.302Z,7.25
2018-09-15T09:40:41.482Z,8.50
2018-09-15T09:43:12.737Z,8.85
2018-09-15T09:45:44.012Z,8.13
2018-09-15T09:48:15.241Z,7.25
2018-09-15T09:50:46.476Z,7.55
2018-09-15T09:53:17.722Z,7.65
2018-09-15T09:55:49.031Z,7.42
2018-09-15T09:58:20.277Z,7.10
2018-09-15T10:00:58.019Z,7.40
2018-09-15T10:03:29.248Z,6.78
2018-09-15T10:06:00.487Z,7.53
2018-09-15T10:08:31.791Z,8.10
2018-09-15T10:11:02.997Z,7.80
2018-09-15T10:13:34.234Z,6.37
2018-09-15T10:16:05.476Z,7.08
2018-09-15T10:18:36.739Z,7.72
2018-09-15T10:21:08.056Z,7.00
2018-09-15T10:23:39.261Z,6.75
2018-09-15T10:26:10.473Z,6.22
2018-09-15T10:28:41.711Z,7.85
2018-09-15T10:31:13.026Z,7.12
2018-09-15T10:33:44.245Z,6.62
2018-09-15T10:36:15.448Z,6.17
2018-09-15T10:38:46.713Z,6.05
2018-09-15T10:41:17.938Z,6.10
2018-09-15T10:43:49.822Z,7.30
2018-09-15T10:46:21.042Z,6.83
2018-09-15T10:48:52.245Z,6.87
2018-09-15T10:51:23.479Z,7.10
2018-09-15T10:53:54.758Z,6.90
2018-09-15T10:56:26.035Z,6.58
2018-09-15T10:58:57.333Z,6.17
2018-09-15T11:01:28.508Z,6.30
2018-09-15T11:03:59.845Z,6.12
2018-09-15T11:06:31.065Z,5.97
2018-09-15T11:09:03.340Z,6.00
2018-09-15T11:11:34.570Z,6.12
2018-09-15T11:14:05.789Z,6.33
2018-09-15T11:16:37.118Z,5.92
2018-09-15T11:19:08.339Z,5.12
2018-09-15T11:21:39.577Z,6.05
2018-09-15T11:24:10.826Z,5.72
2018-09-15T11:26:42.079Z,6.55
2018-09-15T11:29:13.309Z,6.55
2018-09-15T11:31:44.546Z,6.72
2018-09-15T11:34:15.842Z,6.60
2018-09-15T11:36:47.034Z,5.90
2018-09-15T11:39:18.266Z,5.92
2018-09-15T11:41:49.474Z,5.62
2018-09-15T11:44:20.693Z,6.12
2018-09-15T11:46:51.898Z,5.35
2018-09-15T11:49:23.101Z,6.03
2018-09-15T11:51:54.327Z,5.72
2018-09-15T11:54:25.614Z,5.17
2018-09-15T11:56:56.801Z,5.95
2018-09-15T11:59:28.115Z,5.55
2018-09-15T12:01:59.392Z,6.08
2018-09-15T12:04:30.548Z,6.08
2018-09-15T12:07:01.768Z,4.70
2018-09-15T12:09:32.993Z,5.55
2018-09-15T12:12:04.244Z,5.97
2018-09-15T12:14:35.473Z,5.42
2018-09-15T12:17:06.733Z,5.75
2018-09-15T12:19:37.945Z,5.97
2018-09-15T12:22:09.174Z,5.97
2018-09-15T12:24:40.409Z,6.05
2018-09-15T12:27:11.664Z,5.08
2018-09-15T12:29:42.880Z,5.30
2018-09-15T12:32:14.125Z,5.40
2018-09-15T12:34:45.372Z,5.25
2018-09-15T12:37:16.647Z,5.90
2018-09-15T12:39:47.873Z,5.60
2018-09-15T12:42:19.088Z,5.92
2018-09-15T12:44:50.320Z,6.55
2018-09-15T12:47:21.559Z,5.45
2018-09-15T12:49:52.787Z,6.45
2018-09-15T12:52:24.091Z,5.20
2018-09-15T12:54:55.259Z,6.17
2018-09-15T12:57:26.478Z,5.78
2018-09-15T12:59:57.830Z,5.08
2018-09-15T13:02:29.108Z,5.60
2018-09-15T13:05:00.349Z,5.00
2018-09-15T13:07:31.581Z,5.42
2018-09-15T13:10:02.803Z,5.45
2018-09-15T13:12:34.125Z,5.65
2018-09-15T13:15:05.345Z,5.33
2018-09-15T13:17:36.637Z,5.30
2018-09-15T13:20:07.839Z,5.40
2018-09-15T13:22:39.076Z,5.17
2018-09-15T13:25:10.332Z,5.05
2018-09-15T13:27:41.568Z,5.30
2018-09-15T13:30:12.846Z,5.05
2018-09-15T13:32:44.029Z,5.10
2018-09-15T13:35:15.330Z,4.97
2018-09-15T13:37:46.575Z,4.83
2018-09-15T13:40:17.774Z,4.95
2018-09-15T13:42:49.002Z,5.00
2018-09-15T13:45:20.306Z,5.12
2018-09-15T13:47:51.539Z,4.92
2018-09-15T13:50:22.803Z,5.12
2018-09-15T13:52:54.020Z,4.90
2018-09-15T13:55:25.249Z,5.25
2018-09-15T13:57:56.478Z,5.92
2018-09-15T14:00:27.720Z,5.40
2018-09-15T14:02:58.941Z,6.00
2018-09-15T14:05:30.179Z,4.85
2018-09-15T14:08:01.426Z,5.80
2018-09-15T14:10:32.646Z,5.30
2018-09-15T14:13:03.855Z,4.80
2018-09-15T14:15:35.077Z,4.80
2018-09-15T14:18:06.295Z,4.55
2018-09-15T14:20:37.534Z,5.00
2018-09-15T14:23:08.763Z,4.87
2018-09-15T14:25:39.995Z,5.28
2018-09-15T14:28:11.231Z,5.30
2018-09-15T14:30:42.542Z,6.00
2018-09-15T14:33:13.759Z,5.58
2018-09-15T14:35:44.982Z,5.67
2018-09-15T14:38:16.214Z,5.70
2018-09-15T14:40:47.494Z,5.47
2018-09-15T14:43:18.726Z,5.42
2018-09-15T14:45:49.972Z,5.17
2018-09-15T14:48:21.212Z,4.87
2018-09-15T14:50:52.437Z,4.30
2018-09-15T14:53:23.734Z,4.30
2018-09-15T14:55:54.955Z,4.42
2018-09-15T14:58:26.183Z,4.60
2018-09-15T15:00:57.405Z,4.65
2018-09-15T15:03:28.788Z,4.42
2018-09-15T15:06:00.092Z,4.67
2018-09-15T15:08:31.337Z,4.62
2018-09-15T15:11:03.402Z,4.60
2018-09-15T15:13:34.691Z,4.90
2018-09-15T15:16:05.881Z,4.80
2018-09-15T15:18:37.129Z,4.47
2018-09-15T15:21:08.352Z,4.70
2018-09-15T15:23:39.625Z,4.60
2018-09-15T15:26:10.910Z,4.87
2018-09-15T15:28:42.278Z,4.50
2018-09-15T15:31:13.584Z,4.30
2018-09-15T15:33:44.902Z,4.12
2018-09-15T15:36:16.118Z,4.57
2018-09-15T15:38:47.341Z,4.40
2018-09-15T15:41:18.555Z,4.30
2018-09-15T15:43:49.815Z,4.40
2018-09-15T15:46:21.022Z,5.10
2018-09-15T15:48:52.238Z,4.90
2018-09-15T15:51:23.525Z,4.53
2018-09-15T15:53:54.683Z,4.60
2018-09-15T15:56:25.909Z,4.40
2018-09-15T15:58:57.135Z,4.30
2018-09-15T16:01:28.343Z,4.60
2018-09-15T16:03:59.570Z,4.30
2018-09-15T16:06:30.777Z,4.10
2018-09-15T16:09:02.118Z,4.33
2018-09-15T16:11:33.345Z,4.27
2018-09-15T16:14:04.585Z,4.40
2018-09-15T16:16:35.793Z,5.00
2018-09-15T16:19:07.051Z,5.35
2018-09-15T16:21:38.273Z,6.60
2018-09-15T16:24:09.503Z,5.95
2018-09-15T16:26:40.707Z,5.92
2018-09-15T16:29:11.970Z,5.25
2018-09-15T16:31:43.177Z,10.65
2018-09-15T16:34:14.407Z,6.30
2018-09-15T16:36:45.650Z,14.73
2018-09-15T16:39:16.869Z,6.20
2018-09-15T16:41:48.109Z,7.77
2018-09-15T16:44:19.317Z,6.40
2018-09-15T16:46:50.545Z,4.60
2018-09-15T16:49:21.833Z,4.85
2018-09-15T16:51:52.991Z,5.60
2018-09-15T16:54:24.205Z,6.75
2018-09-15T16:56:55.424Z,4.90
2018-09-15T16:59:26.678Z,6.17
2018-09-15T17:01:57.922Z,5.28
2018-09-15T17:04:29.138Z,4.92
2018-09-15T17:07:00.385Z,5.85
2018-09-15T17:09:31.634Z,6.63
2018-09-15T17:12:02.874Z,7.03
2018-09-15T17:14:34.107Z,8.77
2018-09-15T17:17:05.366Z,8.50
2018-09-15T17:19:36.682Z,8.10
2018-09-15T17:22:07.902Z,8.78
2018-09-15T17:24:39.151Z,10.10
2018-09-15T17:27:10.362Z,8.13
2018-09-15T17:29:42.419Z,7.53
2018-09-15T17:32:13.685Z,7.03
2018-09-15T17:34:44.910Z,6.30
2018-09-15T17:37:16.148Z,6.70
2018-09-15T17:39:47.414Z,6.30
2018-09-15T17:42:18.642Z,5.85
2018-09-15T17:44:49.878Z,5.80
2018-09-15T17:47:21.194Z,5.93
2018-09-15T17:49:52.398Z,6.00
2018-09-15T17:52:23.667Z,7.03
2018-09-15T17:54:55.070Z,7.17
2018-09-15T17:57:26.193Z,6.80
2018-09-15T17:59:57.413Z,7.00
2018-09-15T18:02:28.843Z,6.63
2018-09-15T18:05:00.080Z,6.23
2018-09-15T18:07:31.298Z,6.57
2018-09-15T18:10:02.561Z,6.30
2018-09-15T18:12:33.742Z,6.10
2018-09-15T18:15:05.028Z,6.57
2018-09-15T18:17:36.326Z,6.70
2018-09-15T18:20:07.565Z,6.50
2018-09-15T18:22:38.816Z,6.80
2018-09-15T18:25:10.027Z,6.87
2018-09-15T18:27:41.239Z,7.40
2018-09-15T18:30:12.539Z,6.97
2018-09-15T18:32:43.792Z,7.63
2018-09-15T18:35:15.028Z,7.27
2018-09-15T18:37:46.270Z,7.30
2018-09-15T18:40:17.485Z,8.20
2018-09-15T18:42:48.835Z,9.10
2018-09-15T18:45:19.986Z,9.43
2018-09-15T18:47:51.218Z,10.60
2018-09-15T18:50:22.489Z,9.60
2018-09-15T18:52:53.714Z,9.30
2018-09-15T18:55:24.949Z,8.43
2018-09-15T18:57:56.307Z,7.43
2018-09-15T19:00:27.558Z,7.00
2018-09-15T19:02:58.740Z,7.30
2018-09-15T19:05:29.991Z,7.10
2018-09-15T19:08:01.321Z,7.23
2018-09-15T19:10:32.539Z,7.07
2018-09-15T19:13:03.765Z,6.53
2018-09-15T19:15:34.985Z,7.03
2018-09-15T19:18:06.230Z,7.53
2018-09-15T19:20:37.590Z,8.90
2018-09-15T19:23:08.807Z,7.67
2018-09-15T19:25:40.030Z,7.83
2018-09-15T19:28:11.262Z,8.10
2018-09-15T19:30:42.521Z,7.50
2018-09-15T19:33:13.754Z,8.27
2018-09-15T19:35:44.957Z,7.67
2018-09-15T19:38:16.287Z,7.90
2018-09-15T19:40:47.521Z,7.73
2018-09-15T19:43:19.027Z,7.73
2018-09-15T19:45:50.237Z,7.00
2018-09-15T19:48:21.466Z,7.30
2018-09-15T19:50:52.669Z,7.67
2018-09-15T19:53:23.885Z,7.60
2018-09-15T19:55:55.125Z,7.20
2018-09-15T19:58:26.339Z,8.23
2018-09-15T20:00:57.548Z,8.13
2018-09-15T20:03:28.807Z,7.33
2018-09-15T20:06:00.040Z,7.70
2018-09-15T20:08:31.283Z,6.90
2018-09-15T20:11:02.607Z,8.00
2018-09-15T20:13:33.857Z,7.70
2018-09-15T20:16:05.070Z,7.50
2018-09-15T20:18:36.373Z,7.80
2018-09-15T20:21:07.590Z,8.20
2018-09-15T20:23:38.827Z,8.40
2018-09-15T20:26:10.045Z,9.17
2018-09-15T20:28:41.266Z,8.97
2018-09-15T20:31:12.531Z,8.90
2018-09-15T20:33:43.781Z,8.30
2018-09-15T20:36:15.095Z,8.37
2018-09-15T20:38:46.406Z,8.70
2018-09-15T20:41:17.622Z,8.23
2018-09-15T20:43:48.867Z,8.27
2018-09-15T20:46:20.086Z,9.60
2018-09-15T20:48:51.317Z,9.60
2018-09-15T20:51:22.543Z,9.30
2018-09-15T20:53:53.877Z,9.83
2018-09-15T20:56:25.106Z,9.20
2018-09-15T20:58:56.325Z,9.73
2018-09-15T21:01:27.549Z,8.70
2018-09-15T21:03:58.766Z,9.03
2018-09-15T21:06:29.998Z,8.07
2018-09-15T21:09:01.215Z,8.53
2018-09-15T21:11:32.496Z,8.40
2018-09-15T21:14:03.705Z,9.57
2018-09-15T21:16:34.967Z,8.70
2018-09-15T21:19:06.193Z,9.07
2018-09-15T21:21:37.433Z,9.87
2018-09-15T21:24:08.657Z,10.50
2018-09-15T21:26:39.876Z,9.70
2018-09-15T21:29:11.080Z,10.47
2018-09-15T21:31:42.317Z,10.57
2018-09-15T21:34:13.591Z,11.20
2018-09-15T21:36:44.867Z,10.23
2018-09-15T21:39:16.112Z,9.70
2018-09-15T21:41:47.364Z,9.77
2018-09-15T21:44:18.595Z,8.70
2018-09-15T21:46:49.894Z,9.17
2018-09-15T21:49:21.141Z,9.50
2018-09-15T21:51:52.373Z,9.67
2018-09-15T21:54:23.583Z,9.60
2018-09-15T21:56:54.839Z,10.40
2018-09-15T21:59:26.045Z,9.60
2018-09-15T22:01:57.266Z,9.97
2018-09-15T22:04:28.525Z,10.43
2018-09-15T22:06:59.740Z,10.47
2018-09-15T22:09:31.021Z,9.57
2018-09-15T22:12:02.291Z,10.10
2018-09-15T22:14:33.539Z,9.83
2018-09-15T22:17:04.746Z,10.20
2018-09-15T22:19:35.991Z,10.47
2018-09-15T22:22:07.284Z,10.20
2018-09-15T22:24:38.478Z,10.60
2018-09-15T22:27:09.711Z,11.20
2018-09-15T22:29:40.909Z,10.00
2018-09-15T22:32:12.133Z,10.17
2018-09-15T22:34:43.355Z,10.20
2018-09-15T22:37:14.576Z,10.63
2018-09-15T22:39:45.806Z,11.53
2018-09-15T22:42:17.015Z,12.07
2018-09-15T22:44:48.257Z,10.57
2018-09-15T22:47:19.478Z,11.20
2018-09-15T22:49:50.714Z,11.27
2018-09-15T22:52:21.939Z,11.80
2018-09-15T22:54:53.149Z,11.57
2018-09-15T22:57:24.409Z,11.00
2018-09-15T22:59:56.207Z,10.03
2018-09-15T23:02:27.420Z,10.73
2018-09-15T23:04:58.635Z,11.47
2018-09-15T23:07:29.852Z,11.20
2018-09-15T23:10:01.094Z,11.87
2018-09-15T23:12:32.313Z,11.20
2018-09-15T23:15:03.547Z,12.00
2018-09-15T23:17:34.765Z,12.43
2018-09-15T23:20:06.083Z,11.70
2018-09-15T23:22:37.306Z,10.10
2018-09-15T23:25:08.568Z,11.03
2018-09-15T23:27:39.807Z,10.80
2018-09-15T23:30:11.013Z,10.97
2018-09-15T23:32:42.265Z,10.93
2018-09-15T23:35:13.510Z,11.07
2018-09-15T23:37:44.728Z,10.13
2018-09-15T23:40:15.962Z,9.77
2018-09-15T23:42:47.165Z,10.00
2018-09-15T23:45:18.393Z,10.23
2018-09-15T23:47:49.658Z,10.40
2018-09-15T23:50:20.891Z,9.40
2018-09-15T23:52:52.102Z,10.83
2018-09-15T23:55:23.317Z,10.43
2018-09-15T23:57:54.545Z,10.77
